createdAt,value
2019-02-24T00:00:01.796Z,101476.22
2019-02-24T00:05:05.826Z,101468.27
2019-02-24T00:10:11.294Z,101464.59
2019-02-24T00:15:15.407Z,101460.16
2019-02-24T00:20:19.482Z,101467.00
2019-02-24T00:25:23.609Z,101472.55
2019-02-24T00:30:27.798Z,101486.02
2019-02-24T00:35:31.973Z,101496.20
2019-02-24T00:40:35.893Z,101498.05
2019-02-24T00:45:39.872Z,101496.56
2019-02-24T00:50:43.880Z,101502.39
2019-02-24T00:55:47.951Z,101492.50
2019-02-24T01:00:51.875Z,101486.92
2019-02-24T01:05:55.869Z,101484.18
2019-02-24T01:10:59.798Z,101478.78
2019-02-24T01:16:03.814Z,101479.58
2019-02-24T01:21:07.982Z,101472.00
2019-02-24T01:26:11.987Z,101458.92
2019-02-24T01:31:17.446Z,101450.02
2019-02-24T01:36:21.527Z,101439.09
2019-02-24T01:41:25.699Z,101440.68
2019-02-24T01:46:29.775Z,101454.28
2019-02-24T01:51:33.999Z,101451.64
2019-02-24T01:56:38.117Z,101447.42
2019-02-24T02:01:42.255Z,101433.80
2019-02-24T02:06:46.276Z,101447.28
2019-02-24T02:11:50.301Z,101436.09
2019-02-24T02:16:54.243Z,101435.88
2019-02-24T02:21:58.368Z,101439.41
2019-02-24T02:27:02.488Z,101434.67
2019-02-24T02:32:06.784Z,101443.13
2019-02-24T02:37:10.845Z,101446.48
2019-02-24T02:42:14.879Z,101441.31
2019-02-24T02:47:18.900Z,101439.59
2019-02-24T02:52:23.017Z,101437.86
2019-02-24T02:57:27.044Z,101443.45
2019-02-24T03:02:31.084Z,101447.70
2019-02-24T03:07:35.137Z,101446.52
2019-02-24T03:12:39.241Z,101449.64
2019-02-24T03:17:43.364Z,101453.61
2019-02-24T03:22:47.280Z,101457.33
2019-02-24T03:27:51.458Z,101456.81
2019-02-24T03:32:55.696Z,101458.04
2019-02-24T03:37:59.874Z,101454.13
2019-02-24T03:43:03.803Z,101452.97
2019-02-24T03:48:08.024Z,101454.70
2019-02-24T03:53:12.054Z,101459.75
2019-02-24T03:58:16.086Z,101442.73
2019-02-24T04:03:20.299Z,101444.48
2019-02-24T04:08:24.330Z,101455.08
2019-02-24T04:13:28.464Z,101449.08
2019-02-24T04:18:32.484Z,101455.23
2019-02-24T04:23:38.353Z,101446.05
2019-02-24T04:28:42.368Z,101451.05
2019-02-24T04:33:46.714Z,101433.14
2019-02-24T04:38:50.776Z,101440.13
2019-02-24T04:43:54.969Z,101433.34
2019-02-24T04:48:58.886Z,101443.99
2019-02-24T04:54:02.882Z,101439.25
2019-02-24T04:59:08.684Z,101437.27
2019-02-24T05:04:13.015Z,101429.13
2019-02-24T05:09:17.219Z,101443.95
2019-02-24T05:14:21.275Z,101430.77
2019-02-24T05:19:25.261Z,101453.75
2019-02-24T05:24:29.371Z,101462.27
2019-02-24T05:29:33.298Z,101454.41
2019-02-24T05:34:37.884Z,101444.11
2019-02-24T05:39:42.003Z,101462.12
2019-02-24T05:44:46.181Z,101467.09
2019-02-24T05:49:50.263Z,101468.02
2019-02-24T05:54:54.160Z,101459.70
2019-02-24T05:59:58.103Z,101472.04
2019-02-24T06:05:02.141Z,101473.69
2019-02-24T06:10:06.539Z,101474.13
2019-02-24T06:15:10.806Z,101477.98
2019-02-24T06:20:14.719Z,101478.88
2019-02-24T06:25:18.746Z,101485.80
2019-02-24T06:30:22.744Z,101481.13
2019-02-24T06:35:27.008Z,101497.05
2019-02-24T06:40:31.029Z,101482.50
2019-02-24T06:45:35.367Z,101487.30
2019-02-24T06:50:39.384Z,101497.36
2019-02-24T06:55:43.509Z,101499.58
2019-02-24T07:00:47.534Z,101501.39
2019-02-24T07:05:51.665Z,101495.61
2019-02-24T07:10:55.894Z,101490.38
2019-02-24T07:15:59.984Z,101495.16
2019-02-24T07:21:03.989Z,101500.52
2019-02-24T07:26:08.177Z,101504.59
2019-02-24T07:31:12.575Z,101512.08
2019-02-24T07:36:16.749Z,101508.06
2019-02-24T07:41:20.764Z,101511.91
2019-02-24T07:46:24.761Z,101513.52
2019-02-24T07:51:28.688Z,101532.56
2019-02-24T07:56:32.781Z,101526.02
2019-02-24T08:01:36.773Z,101534.27
2019-02-24T08:06:40.964Z,101530.59
2019-02-24T08:11:45.084Z,101537.31
2019-02-24T08:16:49.309Z,101546.52
2019-02-24T08:21:53.484Z,101542.06
2019-02-24T08:26:57.608Z,101547.06
2019-02-24T08:32:01.874Z,101552.29
2019-02-24T08:37:06.218Z,101549.10
2019-02-24T08:42:10.459Z,101550.42
2019-02-24T08:47:14.539Z,101552.70
2019-02-24T08:52:18.559Z,101559.63
2019-02-24T08:57:22.594Z,101569.94
2019-02-24T09:02:29.697Z,101568.05
2019-02-24T09:07:33.810Z,101579.61
2019-02-24T09:12:37.836Z,101581.22
2019-02-24T09:17:41.978Z,101583.16
2019-02-24T09:22:46.041Z,101586.37
2019-02-24T09:27:50.234Z,101583.48
2019-02-24T09:32:54.343Z,101591.23
2019-02-24T09:37:58.472Z,101594.55
2019-02-24T09:43:02.442Z,101594.34
2019-02-24T09:48:06.623Z,101597.66
2019-02-24T09:53:12.186Z,101583.75
2019-02-24T09:58:16.204Z,101583.75
2019-02-24T10:03:20.353Z,101599.41
2019-02-24T10:08:24.604Z,101603.28
2019-02-24T10:13:28.695Z,101604.64
2019-02-24T10:18:32.881Z,101604.05
2019-02-24T10:23:39.450Z,101607.75
2019-02-24T10:28:44.669Z,101606.69
2019-02-24T10:33:48.852Z,101610.89
2019-02-24T10:38:53.058Z,101614.46
2019-02-24T10:43:57.217Z,101610.77
2019-02-24T10:49:03.660Z,101603.89
2019-02-24T10:54:07.248Z,101614.94
2019-02-24T10:59:11.374Z,101624.27
2019-02-24T11:04:15.469Z,101622.16
2019-02-24T11:09:19.685Z,101620.37
2019-02-24T11:14:23.910Z,101622.64
2019-02-24T11:19:28.062Z,101622.53
2019-02-24T11:24:32.147Z,101630.22
2019-02-24T11:29:36.140Z,101630.45
2019-02-24T11:34:40.177Z,101632.48
2019-02-24T11:39:44.670Z,101640.68
2019-02-24T11:44:48.837Z,101631.67
2019-02-24T11:49:52.718Z,101638.14
2019-02-24T11:54:56.722Z,101631.29
2019-02-24T12:00:00.807Z,101626.53
2019-02-24T12:05:05.265Z,101627.75
2019-02-24T12:10:09.504Z,101619.64
2019-02-24T12:15:13.497Z,101564.92
2019-02-24T12:20:17.529Z,101632.61
2019-02-24T12:25:21.663Z,101622.50
2019-02-24T12:30:26.955Z,101628.33
2019-02-24T12:35:31.243Z,101618.69
2019-02-24T12:40:35.373Z,101604.17
2019-02-24T12:45:39.389Z,101605.61
2019-02-24T12:50:43.428Z,101603.11
2019-02-24T12:55:47.465Z,101591.89
2019-02-24T13:00:51.453Z,101583.58
2019-02-24T13:05:55.388Z,101572.58
2019-02-24T13:10:59.310Z,101551.13
2019-02-24T13:16:03.721Z,101528.21
2019-02-24T13:21:08.682Z,101542.00
2019-02-24T13:26:12.718Z,101537.34
2019-02-24T13:31:16.902Z,101521.55
2019-02-24T13:36:21.237Z,101509.13
2019-02-24T13:41:25.520Z,101529.77
2019-02-24T13:46:29.647Z,101522.88
2019-02-24T13:51:33.559Z,101517.16
2019-02-24T13:56:37.853Z,101508.16
2019-02-24T14:01:42.092Z,101503.23
2019-02-24T14:06:46.214Z,101496.52
2019-02-24T14:11:50.439Z,101499.16
2019-02-24T14:16:54.453Z,101503.23
2019-02-24T14:21:58.637Z,101500.22
2019-02-24T14:27:02.768Z,101505.25
2019-02-24T14:32:06.899Z,101512.92
2019-02-24T14:37:11.125Z,101504.36
2019-02-24T14:42:15.152Z,101514.09
2019-02-24T14:47:19.222Z,101508.91
2019-02-24T14:52:23.561Z,101512.16
2019-02-24T14:57:27.786Z,101518.40
2019-02-24T15:02:31.967Z,101511.11
2019-02-24T15:07:35.993Z,101506.45
2019-02-24T15:12:40.043Z,101503.30
2019-02-24T15:17:44.302Z,101492.80
2019-02-24T15:22:48.758Z,101494.17
2019-02-24T15:27:52.881Z,101490.13
2019-02-24T15:32:58.583Z,101501.05
2019-02-24T15:38:05.465Z,101500.88
2019-02-24T15:43:09.494Z,101512.84
2019-02-24T15:48:14.913Z,101515.14
2019-02-24T15:53:19.245Z,101512.98
2019-02-24T15:58:23.317Z,101517.58
2019-02-24T16:03:27.399Z,101525.44
2019-02-24T16:08:31.573Z,101514.58
2019-02-24T16:13:35.903Z,101519.81
2019-02-24T16:18:39.982Z,101529.66
2019-02-24T16:23:44.258Z,101524.73
2019-02-24T16:28:50.796Z,101525.39
2019-02-24T16:33:55.038Z,101532.66
2019-02-24T16:38:59.110Z,101536.60
2019-02-24T16:44:03.067Z,101552.28
2019-02-24T16:49:07.044Z,101554.67
2019-02-24T16:54:11.074Z,101567.26
2019-02-24T16:59:15.174Z,101567.70
2019-02-24T17:04:19.384Z,101574.14
2019-02-24T17:09:23.513Z,101594.06
2019-02-24T17:14:27.695Z,101591.64
2019-02-24T17:19:31.775Z,101595.00
2019-02-24T17:24:35.994Z,101597.62
2019-02-24T17:29:40.080Z,101611.34
2019-02-24T17:34:44.030Z,101622.19
2019-02-24T17:39:48.227Z,101631.27
2019-02-24T17:44:52.530Z,101626.58
2019-02-24T17:49:56.689Z,101626.03
2019-02-24T17:55:00.694Z,101628.84
2019-02-24T18:00:07.807Z,101634.38
2019-02-24T18:05:11.878Z,101632.77
2019-02-24T18:10:16.147Z,101629.59
2019-02-24T18:15:20.359Z,101625.95
2019-02-24T18:20:24.659Z,101629.15
2019-02-24T18:25:28.805Z,101628.83
2019-02-24T18:30:32.967Z,101644.70
2019-02-24T18:35:37.083Z,101639.66
2019-02-24T18:40:41.130Z,101634.56
2019-02-24T18:45:45.360Z,101638.38
2019-02-24T18:50:49.391Z,101641.41
2019-02-24T18:55:53.458Z,101638.44
2019-02-24T19:00:57.539Z,101645.17
2019-02-24T19:06:02.955Z,101644.34
2019-02-24T19:11:07.047Z,101654.75
2019-02-24T19:16:13.530Z,101652.99
2019-02-24T19:21:17.615Z,101655.62
2019-02-24T19:26:21.966Z,101651.01
2019-02-24T19:31:28.739Z,101651.30
2019-02-24T19:36:32.996Z,101650.13
2019-02-24T19:41:36.966Z,101640.32
2019-02-24T19:46:42.282Z,101633.63
2019-02-24T19:51:46.551Z,101640.32
2019-02-24T19:56:50.836Z,101633.70
2019-02-24T20:01:54.956Z,101630.45
2019-02-24T20:06:58.957Z,101635.45
2019-02-24T20:12:04.601Z,101639.92
2019-02-24T20:17:08.726Z,101633.08
2019-02-24T20:22:12.910Z,101639.88
2019-02-24T20:27:17.233Z,101641.85
2019-02-24T20:32:21.684Z,101642.00
2019-02-24T20:37:27.639Z,101640.28
2019-02-24T20:42:31.822Z,101641.84
2019-02-24T20:47:36.158Z,101641.17
2019-02-24T20:52:40.241Z,101643.77
2019-02-24T20:57:44.417Z,101649.14
2019-02-24T21:02:48.701Z,101650.08
2019-02-24T21:07:52.721Z,101640.23
2019-02-24T21:12:56.741Z,101653.88
2019-02-24T21:18:00.770Z,101644.16
2019-02-24T21:23:04.928Z,101661.91
2019-02-24T21:28:09.219Z,101669.83
2019-02-24T21:33:13.261Z,101686.52
2019-02-24T21:38:17.400Z,101687.49
2019-02-24T21:43:21.631Z,101689.34
2019-02-24T21:48:25.963Z,101691.86
2019-02-24T21:53:29.971Z,101693.25
2019-02-24T21:58:33.917Z,101687.28
2019-02-24T22:03:37.922Z,101692.09
2019-02-24T22:08:42.940Z,101680.98
2019-02-24T22:13:47.101Z,101681.66
2019-02-24T22:18:51.231Z,101679.98
2019-02-24T22:23:55.202Z,101676.37
2019-02-24T22:28:59.385Z,101678.38
2019-02-24T22:34:03.617Z,101682.56
2019-02-24T22:39:07.835Z,101685.59
2019-02-24T22:44:12.215Z,101686.63
2019-02-24T22:49:16.505Z,101678.25
2019-02-24T22:54:20.636Z,101673.95
2019-02-24T22:59:24.617Z,101675.00
2019-02-24T23:04:28.834Z,101671.52
2019-02-24T23:09:33.011Z,101678.99
2019-02-24T23:14:37.186Z,101687.28
2019-02-24T23:19:41.375Z,101687.37
2019-02-24T23:24:45.506Z,101686.06
2019-02-24T23:29:49.385Z,101685.23
2019-02-24T23:34:53.362Z,101684.02
2019-02-24T23:39:57.471Z,101681.16
2019-02-24T23:45:09.756Z,101687.58
2019-02-24T23:50:07.270Z,101689.62
2019-02-24T23:55:11.302Z,101692.61
